sensor_id;sensor_type;location;lat;lon;timestamp;P1;durP1;ratioP1;P2;durP2;ratioP2
29730;SDS011;16639;51.488;0.152;2022-08-19T00:01:56;6.45;;;2.85;;
29730;SDS011;16639;51.488;0.152;2022-08-19T00:04:27;4.85;;;2.63;;
29730;SDS011;16639;51.488;0.152;2022-08-19T00:07:20;4.72;;;2.95;;
29730;SDS011;16639;51.488;0.152;2022-08-19T00:09:51;5.00;;;2.60;;
29730;SDS011;16639;51.488;0.152;2022-08-19T00:12:22;5.30;;;2.20;;
29730;SDS011;16639;51.488;0.152;2022-08-19T00:14:49;2.85;;;2.45;;
29730;SDS011;16639;51.488;0.152;2022-08-19T00:17:20;7.93;;;3.05;;
29730;SDS011;16639;51.488;0.152;2022-08-19T00:19:49;4.05;;;2.15;;
29730;SDS011;16639;51.488;0.152;2022-08-19T00:22:16;4.93;;;3.17;;
29730;SDS011;16639;51.488;0.152;2022-08-19T00:24:46;4.78;;;2.60;;
29730;SDS011;16639;51.488;0.152;2022-08-19T00:27:16;4.72;;;2.47;;
29730;SDS011;16639;51.488;0.152;2022-08-19T00:29:53;6.20;;;2.80;;
29730;SDS011;16639;51.488;0.152;2022-08-19T00:32:21;2.35;;;1.90;;
29730;SDS011;16639;51.488;0.152;2022-08-19T00:34:49;3.83;;;1.92;;
29730;SDS011;16639;51.488;0.152;2022-08-19T00:37:19;3.90;;;2.47;;
29730;SDS011;16639;51.488;0.152;2022-08-19T00:39:50;9.32;;;3.13;;
29730;SDS011;16639;51.488;0.152;2022-08-19T00:42:20;7.50;;;3.10;;
29730;SDS011;16639;51.488;0.152;2022-08-19T00:44:48;6.72;;;2.20;;
29730;SDS011;16639;51.488;0.152;2022-08-19T00:47:17;3.58;;;2.67;;
29730;SDS011;16639;51.488;0.152;2022-08-19T00:49:47;4.45;;;2.47;;
29730;SDS011;16639;51.488;0.152;2022-08-19T00:52:23;5.40;;;2.47;;
29730;SDS011;16639;51.488;0.152;2022-08-19T00:54:58;5.28;;;2.60;;
29730;SDS011;16639;51.488;0.152;2022-08-19T00:57:28;5.20;;;2.78;;
29730;SDS011;16639;51.488;0.152;2022-08-19T01:00:03;6.93;;;3.45;;
29730;SDS011;16639;51.488;0.152;2022-08-19T01:02:34;7.20;;;2.88;;
29730;SDS011;16639;51.488;0.152;2022-08-19T01:05:06;3.42;;;2.45;;
29730;SDS011;16639;51.488;0.152;2022-08-19T01:07:39;4.00;;;2.58;;
29730;SDS011;16639;51.488;0.152;2022-08-19T01:10:09;2.92;;;2.00;;
29730;SDS011;16639;51.488;0.152;2022-08-19T01:12:40;6.20;;;3.30;;
29730;SDS011;16639;51.488;0.152;2022-08-19T01:15:10;3.40;;;2.42;;
29730;SDS011;16639;51.488;0.152;2022-08-19T01:17:40;6.57;;;2.47;;
29730;SDS011;16639;51.488;0.152;2022-08-19T01:20:13;2.88;;;2.10;;
29730;SDS011;16639;51.488;0.152;2022-08-19T01:22:55;7.70;;;2.58;;
29730;SDS011;16639;51.488;0.152;2022-08-19T01:25:29;2.55;;;1.90;;
29730;SDS011;16639;51.488;0.152;2022-08-19T01:27:59;6.53;;;2.78;;
29730;SDS011;16639;51.488;0.152;2022-08-19T01:30:36;3.35;;;2.20;;
29730;SDS011;16639;51.488;0.152;2022-08-19T01:33:04;2.67;;;2.35;;
29730;SDS011;16639;51.488;0.152;2022-08-19T01:35:32;4.57;;;3.05;;
29730;SDS011;16639;51.488;0.152;2022-08-19T01:38:05;6.55;;;2.58;;
29730;SDS011;16639;51.488;0.152;2022-08-19T01:40:39;5.23;;;2.13;;
29730;SDS011;16639;51.488;0.152;2022-08-19T01:43:08;3.58;;;2.38;;
29730;SDS011;16639;51.488;0.152;2022-08-19T01:45:36;3.95;;;2.30;;
29730;SDS011;16639;51.488;0.152;2022-08-19T01:48:07;7.95;;;2.60;;
29730;SDS011;16639;51.488;0.152;2022-08-19T01:50:36;6.05;;;2.30;;
29730;SDS011;16639;51.488;0.152;2022-08-19T01:53:05;4.03;;;2.40;;
29730;SDS011;16639;51.488;0.152;2022-08-19T01:55:36;3.88;;;2.55;;
29730;SDS011;16639;51.488;0.152;2022-08-19T01:58:08;4.22;;;2.20;;
29730;SDS011;16639;51.488;0.152;2022-08-19T02:00:39;3.30;;;2.25;;
29730;SDS011;16639;51.488;0.152;2022-08-19T02:03:07;5.03;;;2.85;;
29730;SDS011;16639;51.488;0.152;2022-08-19T02:05:37;3.95;;;2.47;;
29730;SDS011;16639;51.488;0.152;2022-08-19T02:08:06;3.40;;;2.33;;
29730;SDS011;16639;51.488;0.152;2022-08-19T02:10:42;6.50;;;2.92;;
29730;SDS011;16639;51.488;0.152;2022-08-19T02:13:10;5.60;;;2.80;;
29730;SDS011;16639;51.488;0.152;2022-08-19T02:15:39;5.07;;;2.45;;
29730;SDS011;16639;51.488;0.152;2022-08-19T02:18:06;7.15;;;2.80;;
29730;SDS011;16639;51.488;0.152;2022-08-19T02:20:35;5.45;;;2.28;;
29730;SDS011;16639;51.488;0.152;2022-08-19T02:23:04;8.15;;;3.22;;
29730;SDS011;16639;51.488;0.152;2022-08-19T02:25:39;4.88;;;2.78;;
29730;SDS011;16639;51.488;0.152;2022-08-19T02:28:08;5.57;;;2.95;;
29730;SDS011;16639;51.488;0.152;2022-08-19T02:30:40;4.18;;;2.78;;
29730;SDS011;16639;51.488;0.152;2022-08-19T02:33:12;8.65;;;3.20;;
29730;SDS011;16639;51.488;0.152;2022-08-19T02:35:44;8.07;;;3.47;;
29730;SDS011;16639;51.488;0.152;2022-08-19T02:38:13;7.63;;;3.22;;
29730;SDS011;16639;51.488;0.152;2022-08-19T02:41:05;4.95;;;3.50;;
29730;SDS011;16639;51.488;0.152;2022-08-19T02:43:50;5.63;;;3.17;;
29730;SDS011;16639;51.488;0.152;2022-08-19T02:46:38;8.55;;;3.47;;
29730;SDS011;16639;51.488;0.152;2022-08-19T02:49:07;5.50;;;4.30;;
29730;SDS011;16639;51.488;0.152;2022-08-19T02:51:36;7.45;;;4.90;;
29730;SDS011;16639;51.488;0.152;2022-08-19T02:54:06;7.00;;;4.22;;
29730;SDS011;16639;51.488;0.152;2022-08-19T02:56:36;8.60;;;4.13;;
29730;SDS011;16639;51.488;0.152;2022-08-19T02:59:06;7.88;;;4.28;;
29730;SDS011;16639;51.488;0.152;2022-08-19T03:01:39;4.07;;;3.63;;
29730;SDS011;16639;51.488;0.152;2022-08-19T03:04:10;8.38;;;4.30;;
29730;SDS011;16639;51.488;0.152;2022-08-19T03:06:43;8.75;;;4.85;;
29730;SDS011;16639;51.488;0.152;2022-08-19T03:09:12;7.90;;;4.82;;
29730;SDS011;16639;51.488;0.152;2022-08-19T03:11:40;10.50;;;4.75;;
29730;SDS011;16639;51.488;0.152;2022-08-19T03:14:12;9.00;;;4.75;;
29730;SDS011;16639;51.488;0.152;2022-08-19T03:16:41;6.35;;;4.80;;
29730;SDS011;16639;51.488;0.152;2022-08-19T03:19:13;8.43;;;5.47;;
29730;SDS011;16639;51.488;0.152;2022-08-19T03:21:43;6.72;;;5.05;;
29730;SDS011;16639;51.488;0.152;2022-08-19T03:24:11;7.57;;;5.05;;
29730;SDS011;16639;51.488;0.152;2022-08-19T03:26:49;9.25;;;4.85;;
29730;SDS011;16639;51.488;0.152;2022-08-19T03:29:20;9.20;;;4.78;;
29730;SDS011;16639;51.488;0.152;2022-08-19T03:32:00;10.68;;;5.00;;
29730;SDS011;16639;51.488;0.152;2022-08-19T03:34:31;12.98;;;5.50;;
29730;SDS011;16639;51.488;0.152;2022-08-19T03:37:03;9.18;;;5.38;;
29730;SDS011;16639;51.488;0.152;2022-08-19T03:39:37;7.38;;;5.32;;
29730;SDS011;16639;51.488;0.152;2022-08-19T03:42:06;5.30;;;4.18;;
29730;SDS011;16639;51.488;0.152;2022-08-19T03:44:58;6.72;;;4.57;;
29730;SDS011;16639;51.488;0.152;2022-08-19T03:47:25;8.43;;;4.78;;
29730;SDS011;16639;51.488;0.152;2022-08-19T03:49:53;6.07;;;4.43;;
29730;SDS011;16639;51.488;0.152;2022-08-19T03:52:21;8.18;;;4.10;;
29730;SDS011;16639;51.488;0.152;2022-08-19T03:54:48;6.32;;;3.97;;
29730;SDS011;16639;51.488;0.152;2022-08-19T03:57:17;7.38;;;4.30;;
29730;SDS011;16639;51.488;0.152;2022-08-19T03:59:44;8.45;;;4.53;;
29730;SDS011;16639;51.488;0.152;2022-08-19T04:02:13;8.88;;;4.20;;
29730;SDS011;16639;51.488;0.152;2022-08-19T04:04:41;8.57;;;4.50;;
29730;SDS011;16639;51.488;0.152;2022-08-19T04:07:12;7.97;;;4.65;;
29730;SDS011;16639;51.488;0.152;2022-08-19T04:09:45;9.20;;;4.50;;
29730;SDS011;16639;51.488;0.152;2022-08-19T04:12:13;7.28;;;5.20;;
29730;SDS011;16639;51.488;0.152;2022-08-19T04:14:41;10.10;;;4.63;;
29730;SDS011;16639;51.488;0.152;2022-08-19T04:17:11;7.97;;;4.78;;
29730;SDS011;16639;51.488;0.152;2022-08-19T04:19:39;8.25;;;4.32;;
29730;SDS011;16639;51.488;0.152;2022-08-19T04:22:07;6.72;;;3.42;;
29730;SDS011;16639;51.488;0.152;2022-08-19T04:24:35;5.93;;;3.55;;
29730;SDS011;16639;51.488;0.152;2022-08-19T04:27:02;5.32;;;3.00;;
29730;SDS011;16639;51.488;0.152;2022-08-19T04:29:32;3.42;;;2.00;;
29730;SDS011;16639;51.488;0.152;2022-08-19T04:32:00;6.47;;;2.20;;
29730;SDS011;16639;51.488;0.152;2022-08-19T04:34:36;7.13;;;2.45;;
29730;SDS011;16639;51.488;0.152;2022-08-19T04:37:25;3.95;;;2.72;;
29730;SDS011;16639;51.488;0.152;2022-08-19T04:40:00;5.93;;;2.78;;
29730;SDS011;16639;51.488;0.152;2022-08-19T04:42:47;6.85;;;2.60;;
29730;SDS011;16639;51.488;0.152;2022-08-19T04:45:14;8.27;;;3.00;;
29730;SDS011;16639;51.488;0.152;2022-08-19T04:47:43;8.95;;;3.55;;
29730;SDS011;16639;51.488;0.152;2022-08-19T04:50:24;7.88;;;4.22;;
29730;SDS011;16639;51.488;0.152;2022-08-19T04:52:54;6.30;;;4.13;;
29730;SDS011;16639;51.488;0.152;2022-08-19T04:55:23;6.68;;;4.13;;
29730;SDS011;16639;51.488;0.152;2022-08-19T04:57:54;13.68;;;4.88;;
29730;SDS011;16639;51.488;0.152;2022-08-19T05:00:23;4.75;;;4.18;;
29730;SDS011;16639;51.488;0.152;2022-08-19T05:02:51;7.68;;;4.28;;
29730;SDS011;16639;51.488;0.152;2022-08-19T05:05:19;6.72;;;4.40;;
29730;SDS011;16639;51.488;0.152;2022-08-19T05:07:48;6.53;;;4.38;;
29730;SDS011;16639;51.488;0.152;2022-08-19T05:10:19;6.88;;;4.53;;
29730;SDS011;16639;51.488;0.152;2022-08-19T05:12:50;9.27;;;4.65;;
29730;SDS011;16639;51.488;0.152;2022-08-19T05:15:20;8.82;;;5.03;;
29730;SDS011;16639;51.488;0.152;2022-08-19T05:17:49;10.55;;;5.70;;
29730;SDS011;16639;51.488;0.152;2022-08-19T05:20:37;6.75;;;4.57;;
29730;SDS011;16639;51.488;0.152;2022-08-19T05:23:24;11.95;;;5.82;;
29730;SDS011;16639;51.488;0.152;2022-08-19T05:25:52;6.35;;;4.60;;
29730;SDS011;16639;51.488;0.152;2022-08-19T05:28:19;6.20;;;3.45;;
29730;SDS011;16639;51.488;0.152;2022-08-19T05:30:47;4.22;;;3.00;;
29730;SDS011;16639;51.488;0.152;2022-08-19T05:33:17;6.05;;;3.33;;
29730;SDS011;16639;51.488;0.152;2022-08-19T05:35:46;9.35;;;4.07;;
29730;SDS011;16639;51.488;0.152;2022-08-19T05:38:16;6.45;;;3.53;;
29730;SDS011;16639;51.488;0.152;2022-08-19T05:40:44;6.57;;;2.97;;
29730;SDS011;16639;51.488;0.152;2022-08-19T05:43:14;4.57;;;3.22;;
29730;SDS011;16639;51.488;0.152;2022-08-19T05:45:44;3.78;;;2.53;;
29730;SDS011;16639;51.488;0.152;2022-08-19T05:48:14;6.30;;;3.42;;
29730;SDS011;16639;51.488;0.152;2022-08-19T05:50:41;4.05;;;3.17;;
29730;SDS011;16639;51.488;0.152;2022-08-19T05:53:09;9.75;;;3.22;;
29730;SDS011;16639;51.488;0.152;2022-08-19T05:55:37;4.38;;;2.75;;
29730;SDS011;16639;51.488;0.152;2022-08-19T05:58:05;5.30;;;3.45;;
29730;SDS011;16639;51.488;0.152;2022-08-19T06:00:35;4.97;;;2.85;;
29730;SDS011;16639;51.488;0.152;2022-08-19T06:03:03;4.13;;;2.85;;
29730;SDS011;16639;51.488;0.152;2022-08-19T06:05:41;5.78;;;2.72;;
29730;SDS011;16639;51.488;0.152;2022-08-19T06:08:19;5.13;;;2.90;;
29730;SDS011;16639;51.488;0.152;2022-08-19T06:14:05;7.15;;;3.22;;
29730;SDS011;16639;51.488;0.152;2022-08-19T06:16:43;4.93;;;2.50;;
29730;SDS011;16639;51.488;0.152;2022-08-19T06:19:13;2.90;;;2.60;;
29730;SDS011;16639;51.488;0.152;2022-08-19T06:21:43;3.80;;;2.28;;
29730;SDS011;16639;51.488;0.152;2022-08-19T06:24:14;4.15;;;1.83;;
29730;SDS011;16639;51.488;0.152;2022-08-19T06:26:45;3.50;;;1.90;;
29730;SDS011;16639;51.488;0.152;2022-08-19T06:29:16;5.60;;;1.95;;
29730;SDS011;16639;51.488;0.152;2022-08-19T06:31:50;3.05;;;1.45;;
29730;SDS011;16639;51.488;0.152;2022-08-19T06:34:19;3.83;;;1.73;;
29730;SDS011;16639;51.488;0.152;2022-08-19T06:36:50;2.75;;;2.10;;
29730;SDS011;16639;51.488;0.152;2022-08-19T06:39:19;2.63;;;1.40;;
29730;SDS011;16639;51.488;0.152;2022-08-19T06:41:50;3.20;;;1.67;;
29730;SDS011;16639;51.488;0.152;2022-08-19T06:44:25;2.97;;;1.50;;
29730;SDS011;16639;51.488;0.152;2022-08-19T06:46:58;2.47;;;1.33;;
29730;SDS011;16639;51.488;0.152;2022-08-19T06:49:41;4.20;;;1.60;;
29730;SDS011;16639;51.488;0.152;2022-08-19T06:52:10;5.00;;;1.80;;
29730;SDS011;16639;51.488;0.152;2022-08-19T06:54:40;1.27;;;1.17;;
29730;SDS011;16639;51.488;0.152;2022-08-19T06:57:23;4.25;;;1.42;;
29730;SDS011;16639;51.488;0.152;2022-08-19T06:59:51;2.38;;;1.40;;
29730;SDS011;16639;51.488;0.152;2022-08-19T07:02:19;3.33;;;1.27;;
29730;SDS011;16639;51.488;0.152;2022-08-19T07:04:47;1.70;;;1.08;;
29730;SDS011;16639;51.488;0.152;2022-08-19T07:07:18;2.20;;;1.17;;
29730;SDS011;16639;51.488;0.152;2022-08-19T07:09:50;2.67;;;1.50;;
29730;SDS011;16639;51.488;0.152;2022-08-19T07:12:28;2.45;;;1.20;;
29730;SDS011;16639;51.488;0.152;2022-08-19T07:17:32;3.03;;;1.30;;
29730;SDS011;16639;51.488;0.152;2022-08-19T07:20:05;1.35;;;1.02;;
29730;SDS011;16639;51.488;0.152;2022-08-19T07:22:36;1.45;;;1.02;;
29730;SDS011;16639;51.488;0.152;2022-08-19T07:25:05;2.85;;;0.90;;
29730;SDS011;16639;51.488;0.152;2022-08-19T07:27:34;1.70;;;1.10;;
29730;SDS011;16639;51.488;0.152;2022-08-19T07:30:02;2.20;;;0.90;;
29730;SDS011;16639;51.488;0.152;2022-08-19T07:32:34;1.52;;;0.90;;
29730;SDS011;16639;51.488;0.152;2022-08-19T07:35:01;1.13;;;1.02;;
29730;SDS011;16639;51.488;0.152;2022-08-19T07:37:31;3.25;;;0.80;;
29730;SDS011;16639;51.488;0.152;2022-08-19T07:40:00;2.35;;;1.20;;
29730;SDS011;16639;51.488;0.152;2022-08-19T07:42:28;1.83;;;0.80;;
29730;SDS011;16639;51.488;0.152;2022-08-19T07:44:58;7.22;;;1.40;;
29730;SDS011;16639;51.488;0.152;2022-08-19T07:47:26;1.63;;;0.80;;
29730;SDS011;16639;51.488;0.152;2022-08-19T07:50:14;2.15;;;0.90;;
29730;SDS011;16639;51.488;0.152;2022-08-19T07:52:42;5.07;;;1.27;;
29730;SDS011;16639;51.488;0.152;2022-08-19T07:55:16;2.20;;;1.10;;
29730;SDS011;16639;51.488;0.152;2022-08-19T07:58:07;2.65;;;0.93;;
29730;SDS011;16639;51.488;0.152;2022-08-19T08:00:34;8.85;;;1.27;;
29730;SDS011;16639;51.488;0.152;2022-08-19T08:03:02;3.90;;;1.40;;
29730;SDS011;16639;51.488;0.152;2022-08-19T08:05:30;2.30;;;0.90;;
29730;SDS011;16639;51.488;0.152;2022-08-19T08:08:16;4.10;;;1.45;;
29730;SDS011;16639;51.488;0.152;2022-08-19T08:11:02;4.00;;;1.50;;
29730;SDS011;16639;51.488;0.152;2022-08-19T08:13:34;1.00;;;0.90;;
29730;SDS011;16639;51.488;0.152;2022-08-19T08:16:04;1.75;;;1.00;;
29730;SDS011;16639;51.488;0.152;2022-08-19T08:18:39;4.38;;;1.00;;
29730;SDS011;16639;51.488;0.152;2022-08-19T08:21:16;1.52;;;0.90;;
29730;SDS011;16639;51.488;0.152;2022-08-19T08:23:43;4.82;;;1.20;;
29730;SDS011;16639;51.488;0.152;2022-08-19T08:26:11;2.45;;;1.10;;
29730;SDS011;16639;51.488;0.152;2022-08-19T08:28:41;3.67;;;1.45;;
29730;SDS011;16639;51.488;0.152;2022-08-19T08:31:13;4.68;;;1.38;;
29730;SDS011;16639;51.488;0.152;2022-08-19T08:33:41;10.50;;;1.45;;
29730;SDS011;16639;51.488;0.152;2022-08-19T08:36:09;2.83;;;0.90;;
29730;SDS011;16639;51.488;0.152;2022-08-19T08:38:37;4.13;;;1.33;;
29730;SDS011;16639;51.488;0.152;2022-08-19T08:43:56;3.20;;;1.23;;
29730;SDS011;16639;51.488;0.152;2022-08-19T08:49:06;8.48;;;1.58;;
29730;SDS011;16639;51.488;0.152;2022-08-19T08:52:07;2.95;;;0.80;;
29730;SDS011;16639;51.488;0.152;2022-08-19T08:54:59;3.42;;;1.00;;
29730;SDS011;16639;51.488;0.152;2022-08-19T09:00:20;5.07;;;1.10;;
29730;SDS011;16639;51.488;0.152;2022-08-19T09:03:00;5.53;;;1.63;;
29730;SDS011;16639;51.488;0.152;2022-08-19T09:05:41;2.20;;;1.33;;
29730;SDS011;16639;51.488;0.152;2022-08-19T09:08:22;2.47;;;1.27;;
29730;SDS011;16639;51.488;0.152;2022-08-19T09:10:56;5.32;;;0.95;;
29730;SDS011;16639;51.488;0.152;2022-08-19T09:15:53;5.13;;;1.23;;
29730;SDS011;16639;51.488;0.152;2022-08-19T09:18:48;7.75;;;1.20;;
29730;SDS011;16639;51.488;0.152;2022-08-19T09:21:20;4.93;;;1.27;;
29730;SDS011;16639;51.488;0.152;2022-08-19T09:23:58;7.95;;;0.95;;
29730;SDS011;16639;51.488;0.152;2022-08-19T09:26:29;2.45;;;1.20;;
29730;SDS011;16639;51.488;0.152;2022-08-19T09:29:14;4.45;;;0.95;;
29730;SDS011;16639;51.488;0.152;2022-08-19T09:31:43;2.60;;;1.20;;
29730;SDS011;16639;51.488;0.152;2022-08-19T09:34:10;5.18;;;1.17;;
29730;SDS011;16639;51.488;0.152;2022-08-19T09:36:48;8.18;;;1.30;;
29730;SDS011;16639;51.488;0.152;2022-08-19T09:39:20;2.00;;;1.20;;
29730;SDS011;16639;51.488;0.152;2022-08-19T09:41:48;5.65;;;1.48;;
29730;SDS011;16639;51.488;0.152;2022-08-19T09:44:17;1.88;;;1.00;;
29730;SDS011;16639;51.488;0.152;2022-08-19T09:46:47;5.13;;;1.45;;
29730;SDS011;16639;51.488;0.152;2022-08-19T09:49:16;3.67;;;0.95;;
29730;SDS011;16639;51.488;0.152;2022-08-19T09:51:48;1.42;;;1.33;;
29730;SDS011;16639;51.488;0.152;2022-08-19T09:54:18;1.77;;;1.02;;
29730;SDS011;16639;51.488;0.152;2022-08-19T09:56:54;3.92;;;2.03;;
29730;SDS011;16639;51.488;0.152;2022-08-19T09:59:22;5.43;;;1.23;;
29730;SDS011;16639;51.488;0.152;2022-08-19T10:01:50;3.08;;;1.52;;
29730;SDS011;16639;51.488;0.152;2022-08-19T10:04:19;5.18;;;1.60;;
29730;SDS011;16639;51.488;0.152;2022-08-19T10:06:49;4.40;;;1.25;;
29730;SDS011;16639;51.488;0.152;2022-08-19T10:09:21;3.22;;;0.93;;
29730;SDS011;16639;51.488;0.152;2022-08-19T10:12:00;4.28;;;0.77;;
29730;SDS011;16639;51.488;0.152;2022-08-19T10:14:29;3.20;;;1.23;;
29730;SDS011;16639;51.488;0.152;2022-08-19T10:16:57;2.67;;;1.10;;
29730;SDS011;16639;51.488;0.152;2022-08-19T10:19:43;4.43;;;1.33;;
29730;SDS011;16639;51.488;0.152;2022-08-19T10:22:21;5.47;;;1.00;;
29730;SDS011;16639;51.488;0.152;2022-08-19T10:24:51;11.88;;;1.13;;
29730;SDS011;16639;51.488;0.152;2022-08-19T10:27:19;2.08;;;0.77;;
29730;SDS011;16639;51.488;0.152;2022-08-19T10:29:48;1.13;;;0.70;;
29730;SDS011;16639;51.488;0.152;2022-08-19T10:32:16;2.75;;;1.10;;
29730;SDS011;16639;51.488;0.152;2022-08-19T10:34:43;1.92;;;1.13;;
29730;SDS011;16639;51.488;0.152;2022-08-19T10:37:15;5.57;;;0.85;;
29730;SDS011;16639;51.488;0.152;2022-08-19T10:39:54;2.50;;;1.00;;
29730;SDS011;16639;51.488;0.152;2022-08-19T10:42:22;3.03;;;0.93;;
29730;SDS011;16639;51.488;0.152;2022-08-19T10:44:49;5.40;;;1.70;;
29730;SDS011;16639;51.488;0.152;2022-08-19T10:47:17;1.80;;;1.00;;
29730;SDS011;16639;51.488;0.152;2022-08-19T10:49:52;5.28;;;1.15;;
29730;SDS011;16639;51.488;0.152;2022-08-19T10:52:40;8.57;;;2.17;;
29730;SDS011;16639;51.488;0.152;2022-08-19T10:55:20;4.88;;;1.45;;
29730;SDS011;16639;51.488;0.152;2022-08-19T10:58:11;4.22;;;1.38;;
29730;SDS011;16639;51.488;0.152;2022-08-19T11:00:43;4.07;;;1.73;;
29730;SDS011;16639;51.488;0.152;2022-08-19T11:03:20;6.22;;;1.70;;
29730;SDS011;16639;51.488;0.152;2022-08-19T11:05:58;3.70;;;1.58;;
29730;SDS011;16639;51.488;0.152;2022-08-19T11:08:30;7.15;;;1.70;;
29730;SDS011;16639;51.488;0.152;2022-08-19T11:10:59;7.30;;;1.50;;
29730;SDS011;16639;51.488;0.152;2022-08-19T11:13:29;5.50;;;1.58;;
29730;SDS011;16639;51.488;0.152;2022-08-19T11:16:02;5.03;;;1.42;;
29730;SDS011;16639;51.488;0.152;2022-08-19T11:18:37;7.88;;;1.85;;
29730;SDS011;16639;51.488;0.152;2022-08-19T11:21:08;6.93;;;2.00;;
29730;SDS011;16639;51.488;0.152;2022-08-19T11:23:48;3.95;;;2.05;;
29730;SDS011;16639;51.488;0.152;2022-08-19T11:26:18;10.77;;;2.20;;
29730;SDS011;16639;51.488;0.152;2022-08-19T11:28:47;6.03;;;1.92;;
29730;SDS011;16639;51.488;0.152;2022-08-19T11:31:21;6.75;;;1.75;;
29730;SDS011;16639;51.488;0.152;2022-08-19T11:33:58;4.45;;;1.40;;
29730;SDS011;16639;51.488;0.152;2022-08-19T11:36:28;11.13;;;1.90;;
29730;SDS011;16639;51.488;0.152;2022-08-19T11:38:58;5.80;;;1.98;;
29730;SDS011;16639;51.488;0.152;2022-08-19T11:41:25;5.05;;;1.33;;
29730;SDS011;16639;51.488;0.152;2022-08-19T11:43:53;6.78;;;1.60;;
29730;SDS011;16639;51.488;0.152;2022-08-19T11:46:24;8.48;;;1.85;;
29730;SDS011;16639;51.488;0.152;2022-08-19T11:48:57;4.93;;;1.90;;
29730;SDS011;16639;51.488;0.152;2022-08-19T11:51:27;10.02;;;2.25;;
29730;SDS011;16639;51.488;0.152;2022-08-19T11:53:56;7.25;;;2.22;;
29730;SDS011;16639;51.488;0.152;2022-08-19T11:56:26;6.75;;;1.70;;
29730;SDS011;16639;51.488;0.152;2022-08-19T11:58:54;8.18;;;2.88;;
29730;SDS011;16639;51.488;0.152;2022-08-19T12:01:24;9.75;;;2.15;;
29730;SDS011;16639;51.488;0.152;2022-08-19T12:03:53;17.27;;;3.15;;
29730;SDS011;16639;51.488;0.152;2022-08-19T12:06:23;14.75;;;3.58;;
29730;SDS011;16639;51.488;0.152;2022-08-19T12:08:57;8.15;;;2.38;;
29730;SDS011;16639;51.488;0.152;2022-08-19T12:11:26;8.05;;;2.38;;
29730;SDS011;16639;51.488;0.152;2022-08-19T12:14:00;7.10;;;2.33;;
29730;SDS011;16639;51.488;0.152;2022-08-19T12:16:30;9.25;;;4.03;;
29730;SDS011;16639;51.488;0.152;2022-08-19T12:19:00;6.40;;;2.08;;
29730;SDS011;16639;51.488;0.152;2022-08-19T12:21:31;6.55;;;2.28;;
29730;SDS011;16639;51.488;0.152;2022-08-19T12:24:01;6.72;;;1.95;;
29730;SDS011;16639;51.488;0.152;2022-08-19T12:26:32;8.38;;;2.40;;
29730;SDS011;16639;51.488;0.152;2022-08-19T12:29:01;7.90;;;2.75;;
29730;SDS011;16639;51.488;0.152;2022-08-19T12:31:31;5.72;;;2.50;;
29730;SDS011;16639;51.488;0.152;2022-08-19T12:33:58;8.35;;;2.22;;
29730;SDS011;16639;51.488;0.152;2022-08-19T12:36:26;13.32;;;3.10;;
29730;SDS011;16639;51.488;0.152;2022-08-19T12:38:55;10.07;;;2.10;;
29730;SDS011;16639;51.488;0.152;2022-08-19T12:41:26;7.25;;;1.90;;
29730;SDS011;16639;51.488;0.152;2022-08-19T12:43:53;9.82;;;2.53;;
29730;SDS011;16639;51.488;0.152;2022-08-19T12:46:23;12.30;;;2.63;;
29730;SDS011;16639;51.488;0.152;2022-08-19T12:48:51;11.65;;;2.10;;
29730;SDS011;16639;51.488;0.152;2022-08-19T12:51:21;5.50;;;2.30;;
29730;SDS011;16639;51.488;0.152;2022-08-19T12:53:50;7.57;;;2.33;;
29730;SDS011;16639;51.488;0.152;2022-08-19T12:56:17;9.70;;;2.60;;
29730;SDS011;16639;51.488;0.152;2022-08-19T12:58:49;9.90;;;2.70;;
29730;SDS011;16639;51.488;0.152;2022-08-19T13:01:18;6.00;;;2.65;;
29730;SDS011;16639;51.488;0.152;2022-08-19T13:03:49;5.50;;;2.15;;
29730;SDS011;16639;51.488;0.152;2022-08-19T13:06:19;5.72;;;2.47;;
29730;SDS011;16639;51.488;0.152;2022-08-19T13:08:47;7.47;;;2.35;;
29730;SDS011;16639;51.488;0.152;2022-08-19T13:11:15;12.95;;;2.47;;
29730;SDS011;16639;51.488;0.152;2022-08-19T13:13:45;11.48;;;2.33;;
29730;SDS011;16639;51.488;0.152;2022-08-19T13:16:15;4.93;;;2.03;;
29730;SDS011;16639;51.488;0.152;2022-08-19T13:18:44;6.95;;;2.10;;
29730;SDS011;16639;51.488;0.152;2022-08-19T13:21:16;5.95;;;2.20;;
29730;SDS011;16639;51.488;0.152;2022-08-19T13:23:48;11.50;;;2.80;;
29730;SDS011;16639;51.488;0.152;2022-08-19T13:26:16;10.98;;;2.47;;
29730;SDS011;16639;51.488;0.152;2022-08-19T13:28:45;12.23;;;3.38;;
29730;SDS011;16639;51.488;0.152;2022-08-19T13:31:39;8.13;;;2.55;;
29730;SDS011;16639;51.488;0.152;2022-08-19T13:34:30;7.53;;;2.55;;
29730;SDS011;16639;51.488;0.152;2022-08-19T13:39:32;11.75;;;3.03;;
29730;SDS011;16639;51.488;0.152;2022-08-19T13:42:04;10.05;;;2.83;;
29730;SDS011;16639;51.488;0.152;2022-08-19T13:44:32;11.15;;;2.72;;
29730;SDS011;16639;51.488;0.152;2022-08-19T13:47:02;9.15;;;2.50;;
29730;SDS011;16639;51.488;0.152;2022-08-19T13:49:34;7.20;;;2.35;;
29730;SDS011;16639;51.488;0.152;2022-08-19T13:52:03;13.43;;;3.30;;
29730;SDS011;16639;51.488;0.152;2022-08-19T13:54:32;7.75;;;2.50;;
29730;SDS011;16639;51.488;0.152;2022-08-19T13:56:59;10.75;;;2.50;;
29730;SDS011;16639;51.488;0.152;2022-08-19T13:59:26;7.20;;;2.20;;
29730;SDS011;16639;51.488;0.152;2022-08-19T14:01:57;10.07;;;3.03;;
29730;SDS011;16639;51.488;0.152;2022-08-19T14:04:26;9.27;;;2.65;;
29730;SDS011;16639;51.488;0.152;2022-08-19T14:06:53;15.88;;;3.55;;
29730;SDS011;16639;51.488;0.152;2022-08-19T14:09:21;6.97;;;2.80;;
29730;SDS011;16639;51.488;0.152;2022-08-19T14:11:50;14.32;;;2.85;;
29730;SDS011;16639;51.488;0.152;2022-08-19T14:14:18;11.18;;;3.30;;
29730;SDS011;16639;51.488;0.152;2022-08-19T14:16:45;9.25;;;2.25;;
29730;SDS011;16639;51.488;0.152;2022-08-19T14:19:13;8.10;;;2.55;;
29730;SDS011;16639;51.488;0.152;2022-08-19T14:21:40;8.77;;;1.95;;
29730;SDS011;16639;51.488;0.152;2022-08-19T14:24:08;8.43;;;2.22;;
29730;SDS011;16639;51.488;0.152;2022-08-19T14:26:36;10.85;;;2.15;;
29730;SDS011;16639;51.488;0.152;2022-08-19T14:29:03;6.80;;;2.15;;
29730;SDS011;16639;51.488;0.152;2022-08-19T14:31:30;8.10;;;1.88;;
29730;SDS011;16639;51.488;0.152;2022-08-19T14:33:58;13.35;;;2.22;;
29730;SDS011;16639;51.488;0.152;2022-08-19T14:36:26;9.68;;;2.88;;
29730;SDS011;16639;51.488;0.152;2022-08-19T14:39:04;10.95;;;2.33;;
29730;SDS011;16639;51.488;0.152;2022-08-19T14:41:31;7.13;;;2.28;;
29730;SDS011;16639;51.488;0.152;2022-08-19T14:44:00;15.98;;;2.15;;
29730;SDS011;16639;51.488;0.152;2022-08-19T14:46:28;10.63;;;2.70;;
29730;SDS011;16639;51.488;0.152;2022-08-19T14:48:56;7.55;;;2.55;;
29730;SDS011;16639;51.488;0.152;2022-08-19T14:51:26;8.30;;;2.30;;
29730;SDS011;16639;51.488;0.152;2022-08-19T14:53:54;7.53;;;2.20;;
29730;SDS011;16639;51.488;0.152;2022-08-19T14:56:24;14.73;;;2.30;;
29730;SDS011;16639;51.488;0.152;2022-08-19T14:58:55;10.73;;;2.53;;
29730;SDS011;16639;51.488;0.152;2022-08-19T15:01:26;12.90;;;2.53;;
29730;SDS011;16639;51.488;0.152;2022-08-19T15:03:54;9.10;;;2.00;;
29730;SDS011;16639;51.488;0.152;2022-08-19T15:06:22;8.82;;;2.20;;
29730;SDS011;16639;51.488;0.152;2022-08-19T15:08:51;14.07;;;2.17;;
29730;SDS011;16639;51.488;0.152;2022-08-19T15:11:24;8.40;;;2.00;;
29730;SDS011;16639;51.488;0.152;2022-08-19T15:13:57;13.52;;;3.20;;
29730;SDS011;16639;51.488;0.152;2022-08-19T15:16:26;9.18;;;2.70;;
29730;SDS011;16639;51.488;0.152;2022-08-19T15:18:54;4.88;;;1.65;;
29730;SDS011;16639;51.488;0.152;2022-08-19T15:21:23;11.77;;;2.30;;
29730;SDS011;16639;51.488;0.152;2022-08-19T15:23:54;8.57;;;2.50;;
29730;SDS011;16639;51.488;0.152;2022-08-19T15:26:23;11.95;;;2.50;;
29730;SDS011;16639;51.488;0.152;2022-08-19T15:28:54;9.52;;;2.25;;
29730;SDS011;16639;51.488;0.152;2022-08-19T15:31:21;8.30;;;2.20;;